createdAt,value
2023-03-01T00:01:18.768Z,56.74
2023-03-01T00:03:46.225Z,57.17
2023-03-01T00:06:13.579Z,56.70
2023-03-01T00:08:40.907Z,57.03
2023-03-01T00:11:11.391Z,56.65
2023-03-01T00:13:38.880Z,56.74
2023-03-01T00:16:10.136Z,57.38
2023-03-01T00:18:37.400Z,57.54
2023-03-01T00:21:04.901Z,57.73
2023-03-01T00:23:32.704Z,57.79
2023-03-01T00:25:59.972Z,57.66
2023-03-01T00:28:27.254Z,58.03
2023-03-01T00:30:54.526Z,58.61
2023-03-01T00:33:21.825Z,57.58
2023-03-01T00:35:49.196Z,58.17
2023-03-01T00:38:16.577Z,58.61
2023-03-01T00:40:43.880Z,58.99
2023-03-01T00:43:11.291Z,58.97
2023-03-01T00:45:38.593Z,58.58
2023-03-01T00:48:06.496Z,59.06
2023-03-01T00:50:34.637Z,58.56
2023-03-01T00:53:01.909Z,58.72
2023-03-01T00:55:29.283Z,59.08
2023-03-01T00:57:56.626Z,58.56
2023-03-01T01:00:24.015Z,59.94
2023-03-01T01:02:51.499Z,59.34
2023-03-01T01:05:21.959Z,59.33
2023-03-01T01:07:49.705Z,59.90
2023-03-01T01:10:18.062Z,60.83
2023-03-01T01:12:46.147Z,60.09
2023-03-01T01:15:15.200Z,60.84
2023-03-01T01:17:42.509Z,60.25
2023-03-01T01:20:10.149Z,60.55
2023-03-01T01:22:37.406Z,61.23
2023-03-01T01:25:05.215Z,61.53
2023-03-01T01:27:32.496Z,61.75
2023-03-01T01:29:59.811Z,61.51
2023-03-01T01:32:27.448Z,62.47
2023-03-01T01:34:54.823Z,62.47
2023-03-01T01:37:22.309Z,62.58
2023-03-01T01:39:49.555Z,62.59
2023-03-01T01:42:17.625Z,62.20
2023-03-01T01:44:48.005Z,62.83
2023-03-01T01:47:19.870Z,62.95
2023-03-01T01:49:56.395Z,63.25
2023-03-01T01:52:35.370Z,63.26
2023-03-01T01:55:12.948Z,63.08
2023-03-01T01:57:42.845Z,63.30
2023-03-01T02:00:23.027Z,63.20
2023-03-01T02:02:53.003Z,62.92
2023-03-01T02:05:37.939Z,63.27
2023-03-01T02:08:05.599Z,63.68
2023-03-01T02:10:34.403Z,63.56
2023-03-01T02:13:01.935Z,63.81
2023-03-01T02:15:32.546Z,64.38
2023-03-01T02:17:59.924Z,64.71
2023-03-01T02:20:39.343Z,64.46
2023-03-01T02:23:06.889Z,64.33
2023-03-01T02:25:40.079Z,64.32
2023-03-01T02:28:10.330Z,64.41
2023-03-01T02:30:37.659Z,64.98
2023-03-01T02:33:05.291Z,65.22
2023-03-01T02:35:36.331Z,66.05
2023-03-01T02:38:03.629Z,66.41
2023-03-01T02:40:30.965Z,66.81
2023-03-01T02:42:59.285Z,66.87
2023-03-01T02:45:27.342Z,67.59
2023-03-01T02:47:56.225Z,67.17
2023-03-01T02:50:42.814Z,67.28
2023-03-01T02:53:31.001Z,67.58
2023-03-01T02:55:58.263Z,67.44
2023-03-01T02:58:25.766Z,67.60
2023-03-01T03:00:53.541Z,67.42
2023-03-01T03:03:21.556Z,68.14
2023-03-01T03:05:49.399Z,68.00
2023-03-01T03:08:24.970Z,67.58
2023-03-01T03:10:53.007Z,67.93
2023-03-01T03:13:20.414Z,68.17
2023-03-01T03:15:48.023Z,68.31
2023-03-01T03:18:17.611Z,67.98
2023-03-01T03:20:44.862Z,67.79
2023-03-01T03:23:12.228Z,67.94
2023-03-01T03:25:39.603Z,67.62
2023-03-01T03:28:10.789Z,67.76
2023-03-01T03:30:40.970Z,67.27
2023-03-01T03:33:08.416Z,67.17
2023-03-01T03:35:40.259Z,67.62
2023-03-01T03:38:10.346Z,68.00
2023-03-01T03:40:39.208Z,67.48
2023-03-01T03:43:08.670Z,67.11
2023-03-01T03:45:36.408Z,66.74
2023-03-01T03:48:05.362Z,67.38
2023-03-01T03:50:32.665Z,67.55
2023-03-01T03:53:01.653Z,66.67
2023-03-01T03:55:31.609Z,67.47
2023-03-01T03:58:01.757Z,66.68
2023-03-01T04:00:29.167Z,67.35
2023-03-01T04:02:57.568Z,66.92
2023-03-01T04:05:25.013Z,66.94
2023-03-01T04:08:02.029Z,66.74
2023-03-01T04:10:33.877Z,66.58
2023-03-01T04:13:01.133Z,65.89
2023-03-01T04:15:28.639Z,65.97
2023-03-01T04:17:56.207Z,66.12
2023-03-01T04:20:29.417Z,65.56
2023-03-01T04:25:56.879Z,65.52
2023-03-01T04:28:46.071Z,64.71
2023-03-01T04:31:15.051Z,64.30
2023-03-01T04:33:43.819Z,63.93
2023-03-01T04:36:11.445Z,63.82
2023-03-01T04:38:39.161Z,63.63
2023-03-01T04:41:10.895Z,63.89
2023-03-01T04:43:38.382Z,63.17
2023-03-01T04:46:08.127Z,63.02
2023-03-01T04:48:35.468Z,62.85
2023-03-01T04:51:02.872Z,62.76
2023-03-01T04:53:30.240Z,62.50
2023-03-01T04:55:57.621Z,62.54
2023-03-01T04:58:25.574Z,61.96
2023-03-01T05:00:52.980Z,62.24
2023-03-01T05:03:20.678Z,62.28
2023-03-01T05:05:49.218Z,61.46
2023-03-01T05:08:19.501Z,61.15
2023-03-01T05:10:48.116Z,61.60
2023-03-01T05:13:21.745Z,61.10
2023-03-01T05:15:56.728Z,61.28
2023-03-01T05:18:27.085Z,60.57
2023-03-01T05:20:57.220Z,60.96
2023-03-01T05:23:24.673Z,60.79
2023-03-01T05:25:53.349Z,60.77
2023-03-01T05:28:21.086Z,60.95
2023-03-01T05:30:48.434Z,61.34
2023-03-01T05:33:15.824Z,60.40
2023-03-01T05:35:43.917Z,60.73
2023-03-01T05:38:14.912Z,60.15
2023-03-01T05:40:45.925Z,60.04
2023-03-01T05:43:13.831Z,60.40
2023-03-01T05:45:41.710Z,59.68
2023-03-01T05:48:10.095Z,60.30
2023-03-01T05:50:48.154Z,59.40
2023-03-01T05:53:17.617Z,59.56
2023-03-01T05:55:47.234Z,60.12
2023-03-01T05:58:17.386Z,60.10
2023-03-01T06:00:45.239Z,59.37
2023-03-01T06:03:14.218Z,58.83
2023-03-01T06:05:41.858Z,58.85
2023-03-01T06:08:10.499Z,58.96
2023-03-01T06:10:37.859Z,59.13
2023-03-01T06:13:05.948Z,58.81
2023-03-01T06:15:33.319Z,58.23
2023-03-01T06:18:00.702Z,58.27
2023-03-01T06:20:29.066Z,58.06
2023-03-01T06:22:56.380Z,57.48
2023-03-01T06:25:24.690Z,57.37
2023-03-01T06:27:53.303Z,57.56
2023-03-01T06:30:23.117Z,58.02
2023-03-01T06:32:51.205Z,57.33
2023-03-01T06:35:19.074Z,57.96
2023-03-01T06:37:47.862Z,57.53
2023-03-01T06:40:16.058Z,56.98
2023-03-01T06:42:44.405Z,57.02
2023-03-01T06:45:11.868Z,56.58
2023-03-01T06:47:39.314Z,56.46
2023-03-01T06:50:06.948Z,56.44
2023-03-01T06:52:34.318Z,57.08
2023-03-01T06:55:02.517Z,56.16
2023-03-01T06:57:29.874Z,56.07
2023-03-01T06:59:57.210Z,55.71
2023-03-01T07:02:24.857Z,55.42
2023-03-01T07:04:52.554Z,55.61
2023-03-01T07:07:19.877Z,55.37
2023-03-01T07:09:47.599Z,55.34
2023-03-01T07:12:14.903Z,54.67
2023-03-01T07:14:42.344Z,54.80
2023-03-01T07:17:09.676Z,54.30
2023-03-01T07:19:37.066Z,53.89
2023-03-01T07:22:05.327Z,53.65
2023-03-01T07:24:32.790Z,54.05
2023-03-01T07:27:00.268Z,53.63
2023-03-01T07:29:27.631Z,54.23
2023-03-01T07:31:54.980Z,53.93
2023-03-01T07:34:22.286Z,54.33
2023-03-01T07:36:49.578Z,53.41
2023-03-01T07:39:18.603Z,52.96
2023-03-01T07:41:47.002Z,52.40
2023-03-01T07:44:14.294Z,52.69
2023-03-01T07:46:41.554Z,52.85
2023-03-01T07:49:08.835Z,52.86
2023-03-01T07:51:36.081Z,52.63
2023-03-01T07:54:03.335Z,52.98
2023-03-01T07:56:31.009Z,52.68
2023-03-01T07:59:00.220Z,52.10
2023-03-01T08:01:27.529Z,52.38
2023-03-01T08:03:54.784Z,53.02
2023-03-01T08:06:22.370Z,52.48
2023-03-01T08:08:49.614Z,51.88
2023-03-01T08:11:17.015Z,52.21
2023-03-01T08:13:44.793Z,52.56
2023-03-01T08:16:24.031Z,51.79
2023-03-01T08:18:51.455Z,51.11
2023-03-01T08:21:22.011Z,51.29
2023-03-01T08:23:50.682Z,51.53
2023-03-01T08:26:19.831Z,51.02
2023-03-01T08:28:54.189Z,51.90
2023-03-01T08:31:33.168Z,51.50
2023-03-01T08:34:01.679Z,50.67
2023-03-01T08:36:38.083Z,51.11
2023-03-01T08:39:05.865Z,51.10
2023-03-01T08:41:33.439Z,51.04
2023-03-01T08:44:00.809Z,50.91
2023-03-01T08:46:39.640Z,50.57
2023-03-01T08:49:14.860Z,50.65
2023-03-01T08:51:42.502Z,49.50
2023-03-01T08:54:15.903Z,49.60
2023-03-01T08:56:43.317Z,49.76
2023-03-01T08:59:11.845Z,49.38
2023-03-01T09:01:39.252Z,48.98
2023-03-01T09:04:06.761Z,49.96
2023-03-01T09:06:34.876Z,49.35
2023-03-01T09:09:02.987Z,49.19
2023-03-01T09:11:30.686Z,49.47
2023-03-01T09:13:58.100Z,48.88
2023-03-01T09:16:25.504Z,49.34
2023-03-01T09:18:53.837Z,48.02
2023-03-01T09:21:30.642Z,47.54
2023-03-01T09:24:06.650Z,47.07
2023-03-01T09:26:34.159Z,47.14
2023-03-01T09:29:01.615Z,47.72
2023-03-01T09:31:29.006Z,47.74
2023-03-01T09:33:57.663Z,47.09
2023-03-01T09:36:26.490Z,46.98
2023-03-01T09:38:54.334Z,46.28
2023-03-01T09:41:47.357Z,46.83
2023-03-01T09:44:21.586Z,46.28
2023-03-01T09:46:49.031Z,46.77
2023-03-01T09:49:20.199Z,46.14
2023-03-01T09:52:25.671Z,45.84
2023-03-01T09:54:55.794Z,45.62
2023-03-01T09:57:47.928Z,45.70
2023-03-01T10:00:21.116Z,45.61
2023-03-01T10:03:03.725Z,45.76
2023-03-01T10:05:38.178Z,45.33
2023-03-01T10:08:26.278Z,45.13
2023-03-01T10:10:53.586Z,44.85
2023-03-01T10:13:28.313Z,44.36
2023-03-01T10:16:02.980Z,43.98
2023-03-01T10:18:31.631Z,43.70
2023-03-01T10:20:58.794Z,43.70
2023-03-01T10:23:26.753Z,42.58
2023-03-01T10:25:56.926Z,42.68
2023-03-01T10:29:03.542Z,42.87
2023-03-01T10:31:50.557Z,42.09
2023-03-01T10:34:30.653Z,42.39
2023-03-01T10:37:02.238Z,41.40
2023-03-01T10:39:29.569Z,41.83
2023-03-01T10:42:07.233Z,41.20
2023-03-01T10:44:47.262Z,41.38
2023-03-01T10:47:17.091Z,40.72
2023-03-01T10:49:56.124Z,40.13
2023-03-01T10:52:42.205Z,39.76
2023-03-01T10:55:26.425Z,38.77
2023-03-01T10:58:15.834Z,38.58
2023-03-01T11:00:53.915Z,38.30
2023-03-01T11:03:31.952Z,38.23
2023-03-01T11:06:00.346Z,38.67
2023-03-01T11:08:39.231Z,39.55
2023-03-01T11:11:34.131Z,38.51
2023-03-01T11:14:23.429Z,38.39
2023-03-01T11:17:06.705Z,38.83
2023-03-01T11:19:34.316Z,38.13
2023-03-01T11:22:05.588Z,38.00
2023-03-01T11:25:07.377Z,37.78
2023-03-01T11:27:40.176Z,37.90
2023-03-01T11:30:24.315Z,37.47
2023-03-01T11:33:09.410Z,38.40
2023-03-01T11:35:39.207Z,37.33
2023-03-01T11:38:12.262Z,37.90
2023-03-01T11:41:17.185Z,37.81
2023-03-01T11:43:47.139Z,38.22
2023-03-01T11:46:26.745Z,37.58
2023-03-01T11:48:59.990Z,37.60
2023-03-01T11:51:51.968Z,36.98
2023-03-01T11:54:24.586Z,37.35
2023-03-01T11:57:23.658Z,36.95
2023-03-01T11:59:58.691Z,36.82
2023-03-01T12:02:49.327Z,37.27
2023-03-01T12:05:31.782Z,36.88
2023-03-01T12:08:17.637Z,36.79
2023-03-01T12:10:57.908Z,37.44
2023-03-01T12:13:47.787Z,36.52
2023-03-01T12:16:39.232Z,36.03
2023-03-01T12:19:15.051Z,36.48
2023-03-01T12:22:03.962Z,35.38
2023-03-01T12:24:56.241Z,35.47
2023-03-01T12:28:01.119Z,35.43
2023-03-01T12:30:57.799Z,35.19
2023-03-01T12:33:47.412Z,35.23
2023-03-01T12:36:42.106Z,34.83
2023-03-01T12:39:20.298Z,34.36
2023-03-01T12:42:16.900Z,34.56
2023-03-01T12:44:48.699Z,34.88
2023-03-01T12:47:27.825Z,34.24
2023-03-01T12:50:03.737Z,34.07
2023-03-01T12:52:39.972Z,35.05
2023-03-01T12:55:10.428Z,34.50
2023-03-01T12:57:43.663Z,33.67
2023-03-01T13:00:42.495Z,34.53
2023-03-01T13:03:24.844Z,34.02
2023-03-01T13:05:52.036Z,33.62
2023-03-01T13:08:29.291Z,32.76
2023-03-01T13:11:03.799Z,32.98
2023-03-01T13:13:31.199Z,32.42
2023-03-01T13:15:58.730Z,33.30
2023-03-01T13:18:28.873Z,33.00
2023-03-01T13:21:00.531Z,33.05
2023-03-01T13:23:33.040Z,32.90
2023-03-01T13:26:03.193Z,32.66
2023-03-01T13:28:47.021Z,32.85
2023-03-01T13:31:16.904Z,32.80
2023-03-01T13:33:48.581Z,32.44
2023-03-01T13:36:35.484Z,31.98
2023-03-01T13:39:04.855Z,33.03
2023-03-01T13:41:43.842Z,32.95
2023-03-01T13:44:33.597Z,32.60
2023-03-01T13:47:09.454Z,32.71
2023-03-01T13:49:58.344Z,32.91
2023-03-01T13:52:41.743Z,32.39
2023-03-01T13:55:14.829Z,32.68
2023-03-01T13:57:44.546Z,32.73
2023-03-01T14:00:37.585Z,33.35
2023-03-01T14:03:25.131Z,32.63
2023-03-01T14:06:21.354Z,32.76
2023-03-01T14:08:51.812Z,32.34
2023-03-01T14:11:44.520Z,32.53
2023-03-01T14:14:15.846Z,31.84
2023-03-01T14:16:55.446Z,32.18
2023-03-01T14:19:34.932Z,31.67
2023-03-01T14:22:05.395Z,32.31
2023-03-01T14:24:40.645Z,32.12
2023-03-01T14:27:12.941Z,32.14
2023-03-01T14:29:40.417Z,31.11
2023-03-01T14:32:20.705Z,30.13
2023-03-01T14:34:49.511Z,30.14
2023-03-01T14:37:20.881Z,31.09
2023-03-01T14:39:48.757Z,32.09
2023-03-01T14:42:16.246Z,32.65
2023-03-01T14:44:44.571Z,32.40
2023-03-01T14:47:35.209Z,32.66
2023-03-01T14:50:08.057Z,33.17
2023-03-01T14:52:37.335Z,32.80
2023-03-01T14:55:06.491Z,33.29
2023-03-01T14:57:33.774Z,32.91
2023-03-01T15:00:05.286Z,32.67
2023-03-01T15:02:32.666Z,33.13
2023-03-01T15:05:02.131Z,32.97
2023-03-01T15:07:32.416Z,32.98
2023-03-01T15:10:00.440Z,33.58
2023-03-01T15:12:30.449Z,32.67
2023-03-01T15:15:04.262Z,32.85
2023-03-01T15:17:35.569Z,33.43
2023-03-01T15:20:05.218Z,32.87
2023-03-01T15:22:32.512Z,32.85
2023-03-01T15:24:59.791Z,33.13
2023-03-01T15:27:27.254Z,32.94
2023-03-01T15:30:01.158Z,33.74
2023-03-01T15:32:32.590Z,33.77
2023-03-01T15:35:21.882Z,33.59
2023-03-01T15:37:50.251Z,32.71
2023-03-01T15:40:32.413Z,32.29
2023-03-01T15:43:04.005Z,32.13
2023-03-01T15:45:31.813Z,31.96
2023-03-01T15:48:02.848Z,32.84
2023-03-01T15:50:37.060Z,32.43
2023-03-01T15:53:12.256Z,31.84
2023-03-01T15:55:39.585Z,32.23
2023-03-01T15:58:21.596Z,32.66
2023-03-01T16:01:00.304Z,32.43
2023-03-01T16:03:28.350Z,32.32
2023-03-01T16:05:55.670Z,33.32
2023-03-01T16:08:22.927Z,33.26
2023-03-01T16:10:52.105Z,33.31
2023-03-01T16:13:20.333Z,33.74
2023-03-01T16:15:47.811Z,34.95
2023-03-01T16:18:15.109Z,34.70
2023-03-01T16:20:42.440Z,35.10
2023-03-01T16:23:11.175Z,35.57
2023-03-01T16:25:38.949Z,36.02
2023-03-01T16:28:10.151Z,36.77
2023-03-01T16:30:38.654Z,36.92
2023-03-01T16:33:33.421Z,37.47
2023-03-01T16:35:56.624Z,37.68
2023-03-01T16:38:23.965Z,37.52
2023-03-01T16:40:52.147Z,37.42
2023-03-01T16:43:19.489Z,37.36
2023-03-01T16:45:47.597Z,37.16
2023-03-01T16:48:15.007Z,37.61
2023-03-01T16:50:42.253Z,37.09
2023-03-01T16:53:09.625Z,37.30
2023-03-01T16:55:36.969Z,37.53
2023-03-01T16:58:05.408Z,37.82
2023-03-01T17:00:32.886Z,37.45
2023-03-01T17:03:00.212Z,37.91
2023-03-01T17:05:27.527Z,37.54
2023-03-01T17:07:56.695Z,37.94
2023-03-01T17:10:24.010Z,37.23
2023-03-01T17:12:51.310Z,36.38
2023-03-01T17:15:18.716Z,35.49
2023-03-01T17:17:46.003Z,35.63
2023-03-01T17:20:13.740Z,33.98
2023-03-01T17:22:41.025Z,34.15
2023-03-01T17:25:10.274Z,32.94
2023-03-01T17:27:37.999Z,32.20
2023-03-01T17:30:05.709Z,31.63
2023-03-01T17:32:33.126Z,31.66
2023-03-01T17:35:00.496Z,30.69
2023-03-01T17:37:27.783Z,31.05
2023-03-01T17:39:55.082Z,30.22
2023-03-01T17:42:22.394Z,29.61
2023-03-01T17:44:49.678Z,30.44
2023-03-01T17:47:16.971Z,29.08
2023-03-01T17:49:44.197Z,29.61
2023-03-01T17:52:11.479Z,29.48
2023-03-01T17:54:38.729Z,29.50
2023-03-01T17:57:06.047Z,28.45
2023-03-01T17:59:37.129Z,29.06
2023-03-01T18:02:05.856Z,27.92
2023-03-01T18:04:33.136Z,28.52
2023-03-01T18:07:00.455Z,27.77
2023-03-01T18:09:28.023Z,27.97
2023-03-01T18:11:55.397Z,27.80
2023-03-01T18:14:22.790Z,29.12
2023-03-01T18:16:50.051Z,27.63
2023-03-01T18:19:17.471Z,27.62
2023-03-01T18:21:44.756Z,27.71
2023-03-01T18:24:14.894Z,27.91
2023-03-01T18:26:42.258Z,29.23
2023-03-01T18:29:10.652Z,28.83
2023-03-01T18:31:37.984Z,28.43
2023-03-01T18:34:05.290Z,30.37
2023-03-01T18:36:34.709Z,30.54
2023-03-01T18:39:03.277Z,31.83
2023-03-01T18:41:30.780Z,32.50
2023-03-01T18:43:58.527Z,33.68
2023-03-01T18:46:25.929Z,33.32
2023-03-01T18:48:53.620Z,29.80
2023-03-01T18:51:22.819Z,30.85
2023-03-01T18:53:50.389Z,30.01
2023-03-01T18:56:17.708Z,30.24
2023-03-01T18:58:45.024Z,31.26
2023-03-01T19:01:16.483Z,30.74
2023-03-01T19:03:43.845Z,31.12
2023-03-01T19:06:11.247Z,31.57
2023-03-01T19:08:40.495Z,31.38
2023-03-01T19:11:08.245Z,31.63
2023-03-01T19:13:35.861Z,32.51
2023-03-01T19:16:09.842Z,32.65
2023-03-01T19:18:40.015Z,32.57
2023-03-01T19:21:07.566Z,33.36
2023-03-01T19:23:35.219Z,33.00
2023-03-01T19:26:03.897Z,33.39
2023-03-01T19:28:31.198Z,33.31
2023-03-01T19:31:02.591Z,33.64
2023-03-01T19:33:30.798Z,33.38
2023-03-01T19:35:58.347Z,33.88
2023-03-01T19:38:26.043Z,34.47
2023-03-01T19:40:53.541Z,34.32
2023-03-01T19:43:20.815Z,34.60
2023-03-01T19:45:56.988Z,34.19
2023-03-01T19:48:24.418Z,34.37
2023-03-01T19:50:52.312Z,34.21
2023-03-01T19:53:19.643Z,34.87
2023-03-01T19:55:46.881Z,34.52
2023-03-01T19:58:14.174Z,35.27
2023-03-01T20:00:45.224Z,34.97
2023-03-01T20:03:12.861Z,35.75
2023-03-01T20:05:40.346Z,35.39
2023-03-01T20:08:09.531Z,35.55
2023-03-01T20:10:36.848Z,35.58
2023-03-01T20:13:04.305Z,36.13
2023-03-01T20:15:31.556Z,36.42
2023-03-01T20:17:58.891Z,36.83
2023-03-01T20:20:26.441Z,36.69
2023-03-01T20:22:53.742Z,36.88
2023-03-01T20:25:21.055Z,37.05
2023-03-01T20:27:48.409Z,36.63
2023-03-01T20:30:15.729Z,37.29
2023-03-01T20:32:43.184Z,37.73
2023-03-01T20:35:11.029Z,37.85
2023-03-01T20:37:38.472Z,37.64
2023-03-01T20:40:06.376Z,38.19
2023-03-01T20:42:33.637Z,39.19
2023-03-01T20:45:00.905Z,38.79
2023-03-01T20:47:28.236Z,40.04
2023-03-01T20:49:55.594Z,39.81
2023-03-01T20:52:22.954Z,39.88
2023-03-01T20:54:50.322Z,39.90
2023-03-01T20:57:17.589Z,40.17
2023-03-01T20:59:45.030Z,40.88
2023-03-01T21:02:12.358Z,40.35
2023-03-01T21:04:39.784Z,40.87
2023-03-01T21:07:07.024Z,41.21
2023-03-01T21:09:37.121Z,40.71
2023-03-01T21:12:04.507Z,41.41
2023-03-01T21:14:42.333Z,41.08
2023-03-01T21:17:18.710Z,40.55
2023-03-01T21:19:46.052Z,41.23
2023-03-01T21:22:14.162Z,40.99
2023-03-01T21:24:42.024Z,41.54
2023-03-01T21:27:09.741Z,40.88
2023-03-01T21:29:37.874Z,40.63
2023-03-01T21:32:06.008Z,40.46
2023-03-01T21:34:34.186Z,41.34
2023-03-01T21:37:01.863Z,40.99
2023-03-01T21:39:29.556Z,40.90
2023-03-01T21:41:58.190Z,41.90
2023-03-01T21:44:26.792Z,41.26
2023-03-01T21:46:54.278Z,41.75
2023-03-01T21:49:21.944Z,41.09
2023-03-01T21:51:49.249Z,41.21
2023-03-01T21:54:17.064Z,41.42
2023-03-01T21:56:44.558Z,41.30
2023-03-01T21:59:19.685Z,40.82
2023-03-01T22:01:47.379Z,40.75
2023-03-01T22:04:14.934Z,41.92
2023-03-01T22:06:43.875Z,41.76
2023-03-01T22:09:15.883Z,40.88
2023-03-01T22:11:48.841Z,41.15
2023-03-01T22:14:17.325Z,41.14
2023-03-01T22:16:45.740Z,41.04
2023-03-01T22:19:14.026Z,41.44
2023-03-01T22:21:43.033Z,40.79
2023-03-01T22:24:10.588Z,40.95
2023-03-01T22:26:42.273Z,39.95
2023-03-01T22:29:18.009Z,39.73
2023-03-01T22:31:45.392Z,39.43
2023-03-01T22:34:12.857Z,39.51
2023-03-01T22:36:40.235Z,40.01
2023-03-01T22:39:07.593Z,40.91
2023-03-01T22:41:44.193Z,41.32
2023-03-01T22:44:12.540Z,40.87
2023-03-01T22:46:39.894Z,41.61
2023-03-01T22:49:07.217Z,42.60
2023-03-01T22:51:35.700Z,43.46
2023-03-01T22:54:03.211Z,43.59
2023-03-01T22:56:32.279Z,43.41
2023-03-01T22:59:01.216Z,43.79
2023-03-01T23:01:28.860Z,44.34
2023-03-01T23:03:56.760Z,44.02
2023-03-01T23:06:24.200Z,43.20
2023-03-01T23:08:52.878Z,44.43
2023-03-01T23:11:20.500Z,44.95
2023-03-01T23:13:47.809Z,44.80
2023-03-01T23:16:15.241Z,45.17
2023-03-01T23:18:42.781Z,44.36
2023-03-01T23:21:11.616Z,44.64
2023-03-01T23:23:38.963Z,45.05
2023-03-01T23:26:06.917Z,45.14
2023-03-01T23:28:34.701Z,45.55
2023-03-01T23:31:04.254Z,45.91
2023-03-01T23:33:37.689Z,44.80
2023-03-01T23:36:05.101Z,46.86
2023-03-01T23:38:32.403Z,46.63
2023-03-01T23:41:00.100Z,46.98
2023-03-01T23:43:27.369Z,48.31
2023-03-01T23:45:54.656Z,47.77
2023-03-01T23:48:22.469Z,47.76
2023-03-01T23:50:49.848Z,48.40
2023-03-01T23:53:17.903Z,47.76
2023-03-01T23:55:47.600Z,47.91
2023-03-01T23:58:14.901Z,48.20
